Terminal Aerodrome Forecast
Issued by NWS

Current Version | Previous Version | Graphics & Text | Print | Product List | Glossary On
Versions: 1 2 3 4 5 6 7 8 9 10 11 12 13 14 15 16 17 18 19 20 21 22 23
445
FTUS41 KRLX 261723
TAFCKB
TAF
KCKB 261723Z 2618/2718 21010G17KT P6SM SHRA VCTS OVC040CB
     FM262100 17008KT P6SM VCTS BKN040CB
      TEMPO 2621/2701 4SM SHRA OVC025
     FM270300 18005KT 6SM SHRA OVC040
     FM270900 22006KT P6SM OVC025
     FM271200 VRB03KT P6SM OVC008
     FM271700 23006KT P6SM BKN035=

USA.gov is the U.S. government's official web portal to all federal, state and local government web resources and services.